DLH3HH EDDF-EDDM
Flight info
| Callsign | DLH3HH |
|---|---|
| Flight time | 0h 37m |
| Altitude | 23000 |
| Route | CINDY8S/18 CINDY Z74 HAREM T104 ROKIL ROKIL1B |
| Aircraft | A319/M-SDE2E3FGIJ1LORWXYZ/HB1 |
Departure
| Time | 2026-05-04 07:18 |
|---|---|
| Airport | Frankfurt Main Airport (EDDF) |
Arrival
| Time | 2026-05-04 07:56 |
|---|---|
| Airport | Munich Airport (EDDM) |
| Time | Latitude | Longitude | Altitude | Speed | Heading |
|---|---|---|---|---|---|
| 2026-05-04 06:44 | 50.04737 | 8.56737 | 361 ft | 0 kts | 115° |
| 2026-05-04 06:54 | 50.04737 | 8.56736 | 356 ft | 0 kts | 115° |
| 2026-05-04 07:08 | 50.04786 | 8.56677 | 359 ft | 0 kts | 205° |
| 2026-05-04 07:12 | 50.04520 | 8.56393 | 359 ft | 14 kts | 239° |
| 2026-05-04 07:12 | 50.04485 | 8.56247 | 363 ft | 15 kts | 249° |
| 2026-05-04 07:12 | 50.04447 | 8.56092 | 356 ft | 15 kts | 250° |
| 2026-05-04 07:12 | 50.04375 | 8.56036 | 363 ft | 12 kts | 162° |
| 2026-05-04 07:13 | 50.04293 | 8.56071 | 355 ft | 13 kts | 188° |
| 2026-05-04 07:13 | 50.04245 | 8.55962 | 357 ft | 13 kts | 250° |
| 2026-05-04 07:13 | 50.04214 | 8.55832 | 354 ft | 13 kts | 250° |
| 2026-05-04 07:14 | 50.04116 | 8.55424 | 354 ft | 9 kts | 249° |
| 2026-05-04 07:14 | 50.04091 | 8.55321 | 357 ft | 11 kts | 250° |
| 2026-05-04 07:15 | 50.04060 | 8.55189 | 359 ft | 15 kts | 248° |
| 2026-05-04 07:15 | 50.04016 | 8.55007 | 356 ft | 21 kts | 249° |
| 2026-05-04 07:15 | 50.03959 | 8.54769 | 354 ft | 25 kts | 250° |
| 2026-05-04 07:15 | 50.03896 | 8.54503 | 347 ft | 27 kts | 250° |
| 2026-05-04 07:16 | 50.03810 | 8.54250 | 348 ft | 24 kts | 239° |
| 2026-05-04 07:16 | 50.03748 | 8.54003 | 346 ft | 25 kts | 250° |
| 2026-05-04 07:16 | 50.03685 | 8.53744 | 346 ft | 26 kts | 249° |
| 2026-05-04 07:16 | 50.03619 | 8.53478 | 337 ft | 27 kts | 249° |
| 2026-05-04 07:17 | 50.03554 | 8.53207 | 338 ft | 27 kts | 250° |
| 2026-05-04 07:17 | 50.03505 | 8.53002 | 335 ft | 19 kts | 250° |
| 2026-05-04 07:17 | 50.03452 | 8.52800 | 335 ft | 21 kts | 248° |
| 2026-05-04 07:17 | 50.03412 | 8.52641 | 335 ft | 11 kts | 249° |
| 2026-05-04 07:18 | 50.03333 | 8.52593 | 336 ft | 27 kts | 179° |
| 2026-05-04 07:18 | 50.02849 | 8.52598 | 336 ft | 107 kts | 179° |
| 2026-05-04 07:18 | 50.01885 | 8.52612 | 360 ft | 165 kts | 181° |
| 2026-05-04 07:18 | 50.00800 | 8.52647 | 1003 ft | 165 kts | 180° |
| 2026-05-04 07:19 | 49.99624 | 8.52669 | 1698 ft | 177 kts | 182° |
| 2026-05-04 07:19 | 49.98314 | 8.52666 | 2174 ft | 200 kts | 182° |
| 2026-05-04 07:19 | 49.96888 | 8.53141 | 2625 ft | 225 kts | 153° |
| 2026-05-04 07:19 | 49.95805 | 8.54953 | 3412 ft | 237 kts | 122° |
| 2026-05-04 07:20 | 49.95002 | 8.57180 | 4327 ft | 238 kts | 121° |
| 2026-05-04 07:20 | 49.94253 | 8.59493 | 5262 ft | 244 kts | 110° |
| 2026-05-04 07:20 | 49.93959 | 8.62187 | 5928 ft | 266 kts | 95° |
| 2026-05-04 07:20 | 49.93832 | 8.65163 | 6603 ft | 283 kts | 96° |
| 2026-05-04 07:22 | 49.85570 | 8.83377 | 12272 ft | 339 kts | 121° |
| 2026-05-04 07:22 | 49.84419 | 8.86594 | 13159 ft | 342 kts | 122° |
| 2026-05-04 07:23 | 49.83252 | 8.89828 | 14020 ft | 346 kts | 122° |
| 2026-05-04 07:23 | 49.82069 | 8.93088 | 14782 ft | 349 kts | 122° |
| 2026-05-04 07:23 | 49.80872 | 8.96373 | 15535 ft | 352 kts | 122° |
| 2026-05-04 07:23 | 49.79663 | 8.99686 | 16284 ft | 355 kts | 123° |
| 2026-05-04 07:24 | 49.78441 | 9.03037 | 17030 ft | 359 kts | 123° |
| 2026-05-04 07:24 | 49.77205 | 9.06421 | 17773 ft | 363 kts | 123° |
| 2026-05-04 07:24 | 49.76131 | 9.09986 | 18471 ft | 371 kts | 112° |
| 2026-05-04 07:24 | 49.75443 | 9.13870 | 19085 ft | 377 kts | 108° |
| 2026-05-04 07:25 | 49.74564 | 9.17689 | 19662 ft | 377 kts | 119° |
| 2026-05-04 07:26 | 49.62636 | 9.40011 | 23034 ft | 387 kts | 135° |
| 2026-05-04 07:27 | 49.60907 | 9.43075 | 23037 ft | 371 kts | 135° |
| 2026-05-04 07:27 | 49.59227 | 9.46049 | 23037 ft | 365 kts | 135° |
| 2026-05-04 07:27 | 49.57559 | 9.48985 | 23026 ft | 364 kts | 135° |
| 2026-05-04 07:27 | 49.55890 | 9.51916 | 23043 ft | 363 kts | 135° |
| 2026-05-04 07:28 | 49.54225 | 9.54831 | 23041 ft | 363 kts | 135° |
| 2026-05-04 07:28 | 49.52554 | 9.57751 | 23046 ft | 363 kts | 135° |
| 2026-05-04 07:28 | 49.50886 | 9.60664 | 23044 ft | 363 kts | 135° |
| 2026-05-04 07:28 | 49.49219 | 9.63571 | 23052 ft | 363 kts | 135° |
| 2026-05-04 07:29 | 49.47548 | 9.66482 | 23053 ft | 363 kts | 135° |
| 2026-05-04 07:29 | 49.45878 | 9.69387 | 23050 ft | 363 kts | 135° |
| 2026-05-04 07:29 | 49.44208 | 9.72300 | 23060 ft | 363 kts | 135° |
| 2026-05-04 07:29 | 49.42540 | 9.75212 | 23058 ft | 363 kts | 135° |
| 2026-05-04 07:30 | 49.40869 | 9.78121 | 23061 ft | 363 kts | 135° |
| 2026-05-04 07:30 | 49.39198 | 9.81022 | 23065 ft | 363 kts | 136° |
| 2026-05-04 07:30 | 49.37525 | 9.83924 | 23062 ft | 363 kts | 136° |
| 2026-05-04 07:30 | 49.35848 | 9.86828 | 23049 ft | 363 kts | 135° |
| 2026-05-04 07:31 | 49.34171 | 9.89723 | 23049 ft | 363 kts | 135° |
| 2026-05-04 07:31 | 49.32493 | 9.92615 | 23054 ft | 363 kts | 135° |
| 2026-05-04 07:33 | 49.20752 | 10.12741 | 23066 ft | 362 kts | 135° |
| 2026-05-04 07:33 | 49.19078 | 10.15610 | 23069 ft | 362 kts | 135° |
| 2026-05-04 07:33 | 49.17403 | 10.18478 | 23069 ft | 362 kts | 135° |
| 2026-05-04 07:33 | 49.15724 | 10.21341 | 23069 ft | 362 kts | 135° |
| 2026-05-04 07:34 | 49.14046 | 10.24201 | 23050 ft | 362 kts | 135° |
| 2026-05-04 07:34 | 49.12347 | 10.27029 | 23048 ft | 362 kts | 136° |
| 2026-05-04 07:34 | 49.10642 | 10.29786 | 23058 ft | 362 kts | 137° |
| 2026-05-04 07:34 | 49.08900 | 10.32564 | 23059 ft | 362 kts | 137° |
| 2026-05-04 07:35 | 49.07156 | 10.35336 | 23058 ft | 362 kts | 137° |
| 2026-05-04 07:35 | 49.05416 | 10.38105 | 23051 ft | 362 kts | 137° |
| 2026-05-04 07:35 | 49.03672 | 10.40888 | 23059 ft | 362 kts | 137° |
| 2026-05-04 07:35 | 49.01936 | 10.43661 | 23072 ft | 362 kts | 137° |
| 2026-05-04 07:36 | 49.00198 | 10.46439 | 23076 ft | 362 kts | 137° |
| 2026-05-04 07:36 | 48.98467 | 10.49202 | 23079 ft | 362 kts | 137° |
| 2026-05-04 07:38 | 48.86132 | 10.68813 | 22745 ft | 362 kts | 136° |
| 2026-05-04 07:38 | 48.84403 | 10.71561 | 22345 ft | 358 kts | 137° |
| 2026-05-04 07:38 | 48.82691 | 10.74275 | 21937 ft | 354 kts | 136° |
| 2026-05-04 07:38 | 48.81209 | 10.77260 | 21526 ft | 356 kts | 120° |
| 2026-05-04 07:39 | 48.80310 | 10.80749 | 21120 ft | 355 kts | 111° |
| 2026-05-04 07:39 | 48.79526 | 10.84293 | 20713 ft | 353 kts | 111° |
| 2026-05-04 07:39 | 48.78759 | 10.87813 | 20307 ft | 351 kts | 110° |
| 2026-05-04 07:39 | 48.78000 | 10.91309 | 19923 ft | 348 kts | 110° |
| 2026-05-04 07:40 | 48.77245 | 10.94780 | 19551 ft | 346 kts | 110° |
| 2026-05-04 07:40 | 48.76489 | 10.98243 | 19170 ft | 344 kts | 111° |
| 2026-05-04 07:40 | 48.75737 | 11.01672 | 18812 ft | 342 kts | 111° |
| 2026-05-04 07:40 | 48.74989 | 11.05084 | 18462 ft | 340 kts | 111° |
| 2026-05-04 07:41 | 48.74255 | 11.08423 | 18085 ft | 338 kts | 111° |
| 2026-05-04 07:41 | 48.73513 | 11.11787 | 17705 ft | 335 kts | 111° |
| 2026-05-04 07:41 | 48.72774 | 11.15123 | 17324 ft | 333 kts | 111° |
| 2026-05-04 07:41 | 48.72037 | 11.18438 | 17057 ft | 331 kts | 111° |
| 2026-05-04 07:42 | 48.71303 | 11.21731 | 17055 ft | 331 kts | 111° |
| 2026-05-04 07:42 | 48.70560 | 11.25041 | 17055 ft | 332 kts | 111° |
| 2026-05-04 07:42 | 48.69820 | 11.28351 | 17033 ft | 331 kts | 111° |
| 2026-05-04 07:42 | 48.69086 | 11.31640 | 16687 ft | 329 kts | 111° |
| 2026-05-04 07:43 | 48.68360 | 11.34904 | 16329 ft | 327 kts | 111° |
| 2026-05-04 07:43 | 48.67636 | 11.38156 | 15987 ft | 325 kts | 111° |
| 2026-05-04 07:43 | 48.66913 | 11.41381 | 15651 ft | 323 kts | 112° |
| 2026-05-04 07:43 | 48.66195 | 11.44585 | 15330 ft | 321 kts | 112° |
| 2026-05-04 07:44 | 48.65482 | 11.47765 | 14989 ft | 319 kts | 112° |
| 2026-05-04 07:44 | 48.64768 | 11.50939 | 14672 ft | 317 kts | 112° |
| 2026-05-04 07:44 | 48.64057 | 11.54089 | 14352 ft | 315 kts | 112° |
| 2026-05-04 07:44 | 48.63351 | 11.57214 | 14034 ft | 314 kts | 112° |
| 2026-05-04 07:45 | 48.62645 | 11.60331 | 13718 ft | 312 kts | 112° |
| 2026-05-04 07:45 | 48.61943 | 11.63426 | 13386 ft | 310 kts | 112° |
| 2026-05-04 07:45 | 48.61245 | 11.66499 | 13034 ft | 308 kts | 112° |
| 2026-05-04 07:45 | 48.60552 | 11.69550 | 12675 ft | 307 kts | 112° |
| 2026-05-04 07:46 | 48.59862 | 11.72588 | 12341 ft | 305 kts | 112° |
| 2026-05-04 07:46 | 48.59178 | 11.75596 | 11997 ft | 303 kts | 112° |
| 2026-05-04 07:46 | 48.58494 | 11.78604 | 11651 ft | 302 kts | 111° |
| 2026-05-04 07:46 | 48.57814 | 11.81590 | 11312 ft | 300 kts | 111° |
| 2026-05-04 07:47 | 48.57134 | 11.84557 | 10966 ft | 298 kts | 111° |
| 2026-05-04 07:47 | 48.56457 | 11.87506 | 10634 ft | 296 kts | 111° |
| 2026-05-04 07:47 | 48.55785 | 11.90430 | 10293 ft | 294 kts | 111° |
| 2026-05-04 07:49 | 48.51223 | 12.10188 | 6611 ft | 279 kts | 110° |
| 2026-05-04 07:49 | 48.50565 | 12.12896 | 6203 ft | 278 kts | 115° |
| 2026-05-04 07:49 | 48.49392 | 12.15142 | 5818 ft | 273 kts | 143° |
| 2026-05-04 07:50 | 48.47685 | 12.16287 | 5384 ft | 269 kts | 169° |
| 2026-05-04 07:50 | 48.45833 | 12.16681 | 5044 ft | 267 kts | 174° |
| 2026-05-04 07:50 | 48.43988 | 12.16988 | 5009 ft | 267 kts | 174° |
| 2026-05-04 07:50 | 48.42147 | 12.16928 | 5000 ft | 266 kts | 195° |
| 2026-05-04 07:51 | 48.40532 | 12.15612 | 5008 ft | 267 kts | 223° |
| 2026-05-04 07:51 | 48.39420 | 12.13374 | 5006 ft | 269 kts | 242° |
| 2026-05-04 07:51 | 48.38838 | 12.10746 | 4996 ft | 259 kts | 261° |
| 2026-05-04 07:51 | 48.38631 | 12.08123 | 4815 ft | 247 kts | 264° |
| 2026-05-04 07:52 | 48.38449 | 12.05594 | 4513 ft | 239 kts | 264° |
| 2026-05-04 07:52 | 48.38269 | 12.03151 | 4210 ft | 229 kts | 264° |
| 2026-05-04 07:52 | 48.38098 | 12.00862 | 3916 ft | 212 kts | 264° |
| 2026-05-04 07:52 | 48.37940 | 11.98748 | 3648 ft | 195 kts | 265° |
| 2026-05-04 07:53 | 48.37795 | 11.96821 | 3422 ft | 175 kts | 264° |
| 2026-05-04 07:54 | 48.37002 | 11.86305 | 2052 ft | 135 kts | 264° |
| 2026-05-04 07:55 | 48.36895 | 11.84913 | 1873 ft | 134 kts | 264° |
| 2026-05-04 07:55 | 48.36793 | 11.83531 | 1693 ft | 133 kts | 265° |
| 2026-05-04 07:55 | 48.36685 | 11.82157 | 1511 ft | 132 kts | 264° |
| 2026-05-04 07:55 | 48.36593 | 11.80881 | 1466 ft | 105 kts | 265° |
| 2026-05-04 07:56 | 48.36533 | 11.80047 | 1464 ft | 56 kts | 262° |
| 2026-05-04 07:56 | 48.36464 | 11.79729 | 1464 ft | 22 kts | 235° |
| 2026-05-04 07:56 | 48.36371 | 11.79540 | 1465 ft | 22 kts | 233° |
| 2026-05-04 07:56 | 48.36308 | 11.79411 | 1465 ft | 9 kts | 234° |
| 2026-05-04 07:57 | 48.36266 | 11.79336 | 1462 ft | 10 kts | 227° |
| 2026-05-04 07:57 | 48.36206 | 11.79302 | 1468 ft | 10 kts | 182° |
| 2026-05-04 07:57 | 48.36127 | 11.79313 | 1463 ft | 13 kts | 169° |
| 2026-05-04 07:57 | 48.36023 | 11.79330 | 1460 ft | 17 kts | 174° |
| 2026-05-04 07:58 | 48.35910 | 11.79371 | 1467 ft | 17 kts | 136° |
| 2026-05-04 07:58 | 48.35817 | 11.79464 | 1464 ft | 17 kts | 174° |
| 2026-05-04 07:58 | 48.35715 | 11.79476 | 1460 ft | 12 kts | 173° |
| 2026-05-04 07:58 | 48.35626 | 11.79492 | 1467 ft | 13 kts | 173° |
| 2026-05-04 07:59 | 48.35536 | 11.79507 | 1465 ft | 13 kts | 174° |
| 2026-05-04 07:59 | 48.35442 | 11.79523 | 1463 ft | 14 kts | 173° |
| 2026-05-04 07:59 | 48.35343 | 11.79540 | 1460 ft | 15 kts | 174° |
| 2026-05-04 07:59 | 48.35289 | 11.79550 | 1463 ft | 15 kts | 166° |
| 2026-05-04 08:00 | 48.35267 | 11.79641 | 1463 ft | 8 kts | 66° |
| 2026-05-04 08:00 | 48.35280 | 11.79728 | 1467 ft | 9 kts | 84° |
| 2026-05-04 08:00 | 48.35282 | 11.79774 | 1467 ft | 0 kts | 85° |